Time;durP1;ratioP1;P1;durP2;ratioP2;P2;SDS_P1;SDS_P2;PMS_P1;PMS_P2;Temp;Humidity;BMP_temperature;BMP_pressure;BME280_temperature;BME280_humidity;BME280_pressure;Samples;Min_cycle;Max_cycle;Signal;HPM_P1;HPM_P2
2021/04/19 00:01:48;;;;;;;8.00;4.88;;;9.70;98.50;;;;;;5000216;28;20046;-91
2021/04/19 00:04:16;;;;;;;8.50;4.30;;;9.70;98.50;;;;;;4990340;28;20049;-91
2021/04/19 00:06:43;;;;;;;8.00;4.78;;;9.70;98.60;;;;;;4992080;28;20093;-91
2021/04/19 00:09:10;;;;;;;8.68;4.75;;;9.70;98.60;;;;;;5014240;28;20037;-91
2021/04/19 00:11:37;;;;;;;9.82;5.07;;;9.60;98.50;;;;;;5017846;28;20053;-91
2021/04/19 00:14:04;;;;;;;8.30;5.35;;;9.60;98.40;;;;;;5005639;28;20053;-91
2021/04/19 00:16:31;;;;;;;5.95;4.45;;;9.60;98.30;;;;;;5002625;28;20042;-91
2021/04/19 00:19:01;;;;;;;9.90;4.93;;;9.60;98.20;;;;;;5001451;28;20136;-91
2021/04/19 00:21:29;;;;;;;7.78;4.95;;;9.60;98.10;;;;;;5016604;28;20283;-91
2021/04/19 00:23:55;;;;;;;6.53;4.68;;;9.60;98.00;;;;;;5000149;28;20478;-91
2021/04/19 00:26:22;;;;;;;9.55;4.75;;;9.60;98.00;;;;;;4998561;28;20054;-91
2021/04/19 00:28:51;;;;;;;7.45;4.85;;;9.60;97.90;;;;;;5002154;28;20045;-91
2021/04/19 00:31:18;;;;;;;10.25;4.68;;;9.60;97.80;;;;;;5019764;28;20049;-90
2021/04/19 00:33:45;;;;;;;7.32;4.97;;;9.60;97.80;;;;;;5004376;28;20550;-91
2021/04/19 00:36:11;;;;;;;6.88;5.00;;;9.60;97.80;;;;;;4998259;28;20049;-90
2021/04/19 00:38:41;;;;;;;8.55;5.25;;;9.60;97.90;;;;;;5017701;28;20049;-91
2021/04/19 00:41:10;;;;;;;8.20;5.13;;;9.60;97.90;;;;;;5025448;28;20131;-90
2021/04/19 00:43:37;;;;;;;;;;;9.60;97.90;;;;;;5018989;28;20051;-91
2021/04/19 00:46:05;;;;;;;7.25;5.00;;;9.50;98.00;;;;;;5028001;28;19925;-89
2021/04/19 00:48:33;;;;;;;10.32;5.20;;;9.50;97.90;;;;;;5000946;28;20045;-90
2021/04/19 00:51:02;;;;;;;9.38;5.25;;;9.50;97.90;;;;;;5015437;28;20074;-90
2021/04/19 00:53:30;;;;;;;10.82;5.95;;;9.40;97.90;;;;;;5014028;28;20146;-90
2021/04/19 00:55:57;;;;;;;10.07;5.90;;;9.50;97.90;;;;;;4998761;28;20054;-90
2021/04/19 00:58:32;;;;;;;7.93;4.93;;;9.50;98.00;;;;;;4988801;28;21585;-91
2021/04/19 01:01:06;;;;;;;10.13;5.80;;;9.40;97.90;;;;;;5002779;28;20445;-91
2021/04/19 01:03:34;;;;;;;8.13;5.60;;;9.40;97.90;;;;;;5010533;28;20045;-91
2021/04/19 01:06:01;;;;;;;9.77;5.63;;;9.40;97.90;;;;;;4997776;28;20080;-90
2021/04/19 01:08:28;;;;;;;8.40;5.50;;;9.40;97.90;;;;;;5014252;28;20370;-90
2021/04/19 01:10:54;;;;;;;7.00;6.00;;;9.40;97.80;;;;;;5011841;28;20429;-91
2021/04/19 01:13:21;;;;;;;8.45;4.88;;;9.40;97.80;;;;;;5014267;28;20067;-90
2021/04/19 01:15:48;;;;;;;7.60;5.65;;;9.40;97.80;;;;;;5012165;28;20452;-91
2021/04/19 01:18:15;;;;;;;8.43;6.00;;;9.40;97.70;;;;;;4999061;28;20124;-90
2021/04/19 01:20:43;;;;;;;11.20;6.20;;;9.40;97.70;;;;;;4999637;28;20363;-90
2021/04/19 01:23:10;;;;;;;11.13;6.18;;;9.30;97.60;;;;;;5008301;28;20049;-90
2021/04/19 01:25:38;;;;;;;7.30;6.07;;;9.30;97.60;;;;;;5015401;28;20084;-90
2021/04/19 01:28:04;;;;;;;9.32;5.88;;;9.30;97.50;;;;;;5014521;28;20038;-89
2021/04/19 01:30:36;;;;;;;9.32;6.05;;;9.30;97.40;;;;;;5003809;28;20046;-91
2021/04/19 01:33:04;;;;;;;13.98;6.70;;;9.20;97.40;;;;;;4999259;28;20050;-90
2021/04/19 01:35:31;;;;;;;7.43;5.68;;;9.20;97.30;;;;;;4996723;28;20050;-90
2021/04/19 01:37:58;;;;;;;10.73;6.32;;;9.20;97.30;;;;;;4999814;28;20074;-90
2021/04/19 01:40:29;;;;;;;;;;;9.20;97.30;;;;;;5016558;28;20080;-90
2021/04/19 01:42:56;;;;;;;11.68;6.88;;;9.20;97.30;;;;;;5000471;28;19929;-90
2021/04/19 01:45:23;;;;;;;9.75;6.13;;;9.20;97.30;;;;;;4992544;28;20045;-89
2021/04/19 01:47:53;;;;;;;10.00;6.18;;;9.10;97.20;;;;;;5009076;28;20058;-90
2021/04/19 01:50:21;;;;;;;;;;;9.10;97.20;;;;;;4990249;28;20046;-90
2021/04/19 01:52:49;;;;;;;10.77;6.30;;;9.10;97.20;;;;;;5003463;28;19925;-90
2021/04/19 01:55:22;;;;;;;9.55;6.45;;;9.00;97.20;;;;;;5028086;28;20788;-89
2021/04/19 01:57:54;;;;;;;8.98;6.28;;;9.00;97.20;;;;;;5046106;28;20038;-90
2021/04/19 02:00:25;;;;;;;9.73;6.28;;;9.00;97.20;;;;;;5017395;28;20053;-90
2021/04/19 02:03:11;;;;;;;8.10;6.05;;;9.00;97.20;;;;;;5018080;28;20411;-90
2021/04/19 02:06:00;;;;;;;10.70;6.55;;;9.00;97.10;;;;;;5026978;28;20496;-90
2021/04/19 02:09:02;;;;;;;8.43;6.28;;;9.00;97.10;;;;;;5033327;28;20070;-91
2021/04/19 02:11:58;;;;;;;12.07;6.10;;;9.00;97.00;;;;;;5029678;28;20041;-90
2021/04/19 02:14:48;;;;;;;10.75;6.43;;;9.00;97.00;;;;;;4916816;29;20428;-90
2021/04/19 02:17:37;;;;;;;9.07;6.18;;;9.00;97.00;;;;;;4916971;29;20083;-90
2021/04/19 02:20:28;;;;;;;10.23;6.20;;;9.00;97.00;;;;;;4916457;29;20051;-90
2021/04/19 02:23:08;;;;;;;9.90;6.20;;;9.00;97.00;;;;;;4919806;29;20143;-90
2021/04/19 02:25:41;;;;;;;8.82;6.28;;;9.00;97.00;;;;;;4929560;29;20048;-90
2021/04/19 02:28:14;;;;;;;10.05;6.60;;;9.00;97.00;;;;;;4915311;29;20093;-90
2021/04/19 02:30:46;;;;;;;9.43;6.10;;;9.00;97.10;;;;;;4916120;29;20076;-90
2021/04/19 02:33:17;;;;;;;8.45;6.70;;;9.00;97.10;;;;;;4915470;29;20052;-90
2021/04/19 02:35:46;;;;;;;12.35;7.15;;;9.00;97.20;;;;;;4930808;29;20044;-90
2021/04/19 02:38:21;;;;;;;9.50;6.53;;;9.00;97.20;;;;;;4915926;29;20052;-90
2021/04/19 02:40:49;;;;;;;10.35;6.38;;;9.00;97.20;;;;;;4926620;29;20047;-90
2021/04/19 02:43:20;;;;;;;9.15;6.30;;;9.00;97.20;;;;;;4925380;29;20055;-90
2021/04/19 02:45:47;;;;;;;10.52;6.30;;;9.00;97.20;;;;;;4918344;29;20079;-89
2021/04/19 02:48:15;;;;;;;12.07;6.43;;;9.00;97.20;;;;;;4930702;29;20495;-90
2021/04/19 02:50:42;;;;;;;11.57;6.75;;;9.00;97.30;;;;;;4937648;28;20069;-90
2021/04/19 02:53:09;;;;;;;10.35;6.47;;;9.00;97.30;;;;;;5019480;28;20095;-90
2021/04/19 02:55:38;;;;;;;11.15;6.25;;;9.00;97.40;;;;;;5027385;28;20473;-90
2021/04/19 02:58:07;;;;;;;10.65;6.28;;;9.00;97.40;;;;;;5028108;28;20099;-89
2021/04/19 03:00:38;;;;;;;11.98;6.90;;;9.00;97.40;;;;;;5029115;28;20095;-91
2021/04/19 03:03:09;;;;;;;9.18;6.05;;;9.00;97.50;;;;;;5050481;28;20509;-90
2021/04/19 03:05:38;;;;;;;8.73;6.70;;;9.00;97.50;;;;;;5034950;28;20045;-90
2021/04/19 03:08:13;;;;;;;8.70;6.60;;;8.90;97.50;;;;;;5024256;28;20046;-90
2021/04/19 03:10:50;;;;;;;8.77;6.78;;;9.00;97.60;;;;;;5023730;28;20132;-90
2021/04/19 03:13:20;;;;;;;12.70;7.45;;;9.00;97.60;;;;;;5027198;28;20045;-90
2021/04/19 03:15:53;;;;;;;8.30;6.68;;;8.90;97.60;;;;;;5036283;28;20427;-90
2021/04/19 03:18:21;;;;;;;11.07;7.45;;;8.90;97.60;;;;;;5010521;28;20045;-90
2021/04/19 03:21:10;;;;;;;10.60;6.97;;;8.90;97.60;;;;;;5036926;28;20044;-90
2021/04/19 03:23:44;;;;;;;15.40;7.55;;;8.90;97.70;;;;;;5018236;28;20045;-89
2021/04/19 03:26:13;;;;;;;10.50;7.63;;;8.90;97.70;;;;;;5009368;28;20052;-90
2021/04/19 03:28:44;;;;;;;11.07;7.53;;;8.90;97.70;;;;;;5025662;28;20095;-90
2021/04/19 03:31:18;;;;;;;10.02;6.57;;;8.90;97.70;;;;;;5018993;28;20133;-90
2021/04/19 03:33:46;;;;;;;10.73;7.72;;;8.90;97.70;;;;;;5019853;28;20045;-90
2021/04/19 03:36:15;;;;;;;11.63;7.22;;;8.90;97.70;;;;;;5042855;28;20131;-90
2021/04/19 03:38:44;;;;;;;10.32;6.93;;;8.90;97.70;;;;;;5036918;28;20100;-90
2021/04/19 03:41:12;;;;;;;13.55;7.15;;;8.90;97.70;;;;;;5023339;28;20076;-90
2021/04/19 03:43:39;;;;;;;10.75;7.32;;;8.90;97.70;;;;;;5023311;28;20041;-90
2021/04/19 03:46:08;;;;;;;9.45;7.15;;;8.90;97.70;;;;;;5025574;28;20475;-90
2021/04/19 03:48:41;;;;;;;9.95;7.20;;;8.90;97.90;;;;;;5031635;28;20045;-90
2021/04/19 03:51:12;;;;;;;10.13;7.30;;;8.90;97.70;;;;;;5019322;28;20399;-90
2021/04/19 03:53:41;;;;;;;12.35;7.30;;;8.90;97.80;;;;;;4999612;28;20042;-90
2021/04/19 03:56:12;;;;;;;10.68;7.70;;;8.90;97.80;;;;;;5020898;28;20045;-90
2021/04/19 03:58:38;;;;;;;10.52;7.30;;;8.90;97.90;;;;;;5004933;28;20126;-90
2021/04/19 04:01:08;;;;;;;10.93;7.13;;;8.90;97.90;;;;;;4999511;28;20065;-90
2021/04/19 04:03:36;;;;;;;11.27;6.95;;;8.90;98.00;;;;;;5004415;28;20094;-90
2021/04/19 04:06:04;;;;;;;9.50;7.20;;;8.90;98.00;;;;;;5000417;28;20048;-90
2021/04/19 04:08:31;;;;;;;12.05;7.32;;;8.90;98.10;;;;;;5002714;28;20046;-90
2021/04/19 04:10:59;;;;;;;11.52;7.80;;;8.90;98.10;;;;;;5020060;28;20103;-89
2021/04/19 04:13:29;;;;;;;10.90;7.60;;;8.90;98.10;;;;;;5006777;28;20125;-90
2021/04/19 04:15:58;;;;;;;11.48;7.75;;;8.90;98.10;;;;;;5003358;28;20552;-90
2021/04/19 04:18:26;;;;;;;13.65;8.60;;;8.90;98.20;;;;;;5015502;28;20041;-89
2021/04/19 04:20:53;;;;;;;9.48;7.10;;;8.90;98.20;;;;;;4999880;28;20042;-90
2021/04/19 04:23:21;;;;;;;9.90;7.47;;;8.90;98.20;;;;;;5002952;28;20052;-90
2021/04/19 04:25:48;;;;;;;12.18;8.07;;;8.90;98.20;;;;;;4996197;28;20124;-90
2021/04/19 04:28:17;;;;;;;13.88;7.47;;;8.90;98.20;;;;;;5002967;28;20105;-89
2021/04/19 04:30:44;;;;;;;;;;;8.90;98.20;;;;;;5002623;28;20059;-90
2021/04/19 04:33:11;;;;;;;12.38;7.53;;;8.90;98.30;;;;;;4986333;28;19957;-89
2021/04/19 04:35:38;;;;;;;10.45;7.47;;;8.80;98.20;;;;;;5016840;28;20053;-89
2021/04/19 04:38:06;;;;;;;12.90;7.88;;;8.80;98.20;;;;;;5007511;28;20049;-89
2021/04/19 04:40:33;;;;;;;10.98;8.43;;;8.80;98.30;;;;;;5015848;28;20041;-90
2021/04/19 04:43:18;;;;;;;12.68;8.25;;;8.80;98.30;;;;;;5013643;28;20377;-90
2021/04/19 04:45:47;;;;;;;13.02;8.30;;;8.80;98.30;;;;;;4993698;28;20396;-90
2021/04/19 04:48:48;;;;;;;11.43;8.10;;;8.80;98.30;;;;;;4998398;28;20077;-91
2021/04/19 04:51:19;;;;;;;14.38;8.63;;;8.80;98.40;;;;;;4913838;29;20444;-94
2021/04/19 04:53:58;;;;;;;14.13;8.50;;;8.80;98.40;;;;;;4935183;28;20100;-93
2021/04/19 04:56:30;;;;;;;12.05;8.52;;;8.80;98.40;;;;;;4930214;29;20076;-90
2021/04/19 04:58:58;;;;;;;13.52;8.82;;;8.80;98.40;;;;;;4938527;29;20090;-89
2021/04/19 05:01:28;;;;;;;13.13;7.93;;;8.80;98.50;;;;;;4939510;29;20044;-90
2021/04/19 05:03:59;;;;;;;12.07;8.68;;;8.80;98.50;;;;;;4924120;29;20051;-91
2021/04/19 05:06:27;;;;;;;12.68;8.32;;;8.80;98.50;;;;;;4931937;29;20040;-91
2021/04/19 05:08:55;;;;;;;;;;;8.80;98.40;;;;;;4921936;29;20404;-90
2021/04/19 05:11:22;;;;;;;10.18;7.65;;;8.80;98.50;;;;;;4933204;29;20026;-91
2021/04/19 05:13:50;;;;;;;10.68;7.80;;;8.70;98.50;;;;;;4937219;29;20047;-91
2021/04/19 05:16:27;;;;;;;10.55;7.63;;;8.70;98.50;;;;;;4931517;29;20380;-90
2021/04/19 05:18:54;;;;;;;14.60;8.10;;;8.70;98.50;;;;;;4926303;29;20072;-90
2021/04/19 05:21:21;;;;;;;10.87;7.63;;;8.70;98.50;;;;;;4935736;29;20138;-90
2021/04/19 05:23:48;;;;;;;13.80;7.90;;;8.70;98.50;;;;;;4921881;29;20059;-90
2021/04/19 05:26:17;;;;;;;11.32;8.30;;;8.70;98.50;;;;;;4923993;29;20047;-90
2021/04/19 05:28:45;;;;;;;12.95;8.02;;;8.70;98.50;;;;;;5004163;28;20046;-90
2021/04/19 05:31:15;;;;;;;13.07;8.65;;;8.70;98.50;;;;;;4996724;28;20567;-90
2021/04/19 05:33:42;;;;;;;11.52;7.55;;;8.80;98.60;;;;;;5013916;28;20537;-90
2021/04/19 05:36:11;;;;;;;11.20;8.00;;;8.80;98.60;;;;;;4997298;28;20055;-91
2021/04/19 05:38:44;;;;;;;12.73;8.77;;;8.80;98.50;;;;;;5007737;28;20046;-91
2021/04/19 05:41:11;;;;;;;12.90;7.90;;;8.80;98.50;;;;;;5000137;28;20157;-90
2021/04/19 05:43:43;;;;;;;17.90;8.10;;;8.80;98.60;;;;;;4984139;28;20069;-90
2021/04/19 05:46:14;;;;;;;13.38;8.07;;;8.80;98.40;;;;;;4999948;28;20099;-90
2021/04/19 05:48:42;;;;;;;11.88;8.43;;;8.90;98.50;;;;;;5014611;28;20053;-91
2021/04/19 05:51:24;;;;;;;10.77;7.75;;;8.80;98.40;;;;;;4996664;28;20038;-90
2021/04/19 05:53:54;;;;;;;13.38;8.38;;;8.90;98.40;;;;;;5001574;28;20042;-90
2021/04/19 05:56:57;;;;;;;10.38;7.00;;;8.90;98.30;;;;;;5017054;28;20052;-89
2021/04/19 06:00:07;;;;;;;10.77;7.53;;;8.90;98.30;;;;;;5000646;28;20133;-90
2021/04/19 06:02:56;;;;;;;12.90;8.35;;;8.90;98.20;;;;;;5004469;28;20044;-90
2021/04/19 06:05:42;;;;;;;10.20;7.97;;;8.90;98.20;;;;;;4999966;28;20390;-90
2021/04/19 06:08:15;;;;;;;13.20;8.50;;;8.90;98.10;;;;;;5011327;28;20096;-90
2021/04/19 06:10:48;;;;;;;11.80;7.75;;;8.90;98.10;;;;;;5012659;28;20042;-91
2021/04/19 06:13:19;;;;;;;12.27;8.00;;;8.90;98.00;;;;;;5001248;28;20049;-90
2021/04/19 06:15:51;;;;;;;12.90;7.95;;;8.90;98.00;;;;;;4998451;28;20045;-91
2021/04/19 06:18:20;;;;;;;14.70;7.95;;;8.90;98.10;;;;;;4988216;28;20084;-91
2021/04/19 06:20:53;;;;;;;;;;;8.90;98.10;;;;;;5000226;28;20042;-90
2021/04/19 06:23:21;;;;;;;12.75;7.75;;;8.90;98.20;;;;;;5001705;28;19953;-91
2021/04/19 06:25:49;;;;;;;17.30;8.27;;;8.90;98.10;;;;;;5001121;28;20038;-90
2021/04/19 06:28:16;;;;;;;12.40;7.60;;;9.00;98.20;;;;;;5004475;28;20119;-90
2021/04/19 06:31:03;;;;;;;11.32;8.07;;;9.00;98.10;;;;;;5009150;28;20157;-91
2021/04/19 06:33:33;;;;;;;14.73;8.40;;;9.10;98.00;;;;;;5001692;28;20049;-90
2021/04/19 06:36:00;;;;;;;12.20;8.77;;;9.10;98.00;;;;;;5008941;28;20370;-90
2021/04/19 06:38:29;;;;;;;12.20;8.15;;;9.20;98.00;;;;;;5000201;28;20038;-91
2021/04/19 06:40:55;;;;;;;;;;;9.20;97.90;;;;;;5009667;28;20486;-91
2021/04/19 06:43:23;;;;;;;11.07;7.68;;;9.20;97.80;;;;;;5010583;28;19948;-91
2021/04/19 06:45:50;;;;;;;10.10;7.72;;;9.30;97.80;;;;;;5008737;28;20038;-91
2021/04/19 06:48:17;;;;;;;11.50;8.48;;;9.30;97.60;;;;;;5025892;28;20041;-89
2021/04/19 06:50:48;;;;;;;14.77;8.80;;;9.40;97.60;;;;;;5012807;28;20103;-90
2021/04/19 06:53:14;;;;;;;11.18;7.38;;;9.50;97.50;;;;;;5005802;28;20049;-91
2021/04/19 06:55:43;;;;;;;13.73;8.00;;;9.60;97.60;;;;;;5016837;28;20079;-91
2021/04/19 06:58:17;;;;;;;11.75;8.05;;;9.70;97.60;;;;;;5010398;28;20041;-91
2021/04/19 07:00:48;;;;;;;13.57;7.75;;;9.80;97.30;;;;;;5006397;28;20128;-91
2021/04/19 07:03:20;;;;;;;13.65;7.63;;;10.00;97.00;;;;;;5013417;28;20410;-90
2021/04/19 07:05:49;;;;;;;13.43;8.20;;;10.10;96.70;;;;;;5017173;28;20546;-90
2021/04/19 07:08:22;;;;;;;13.45;8.60;;;10.20;96.50;;;;;;5015362;28;20057;-91
2021/04/19 07:10:53;;;;;;;9.38;6.97;;;10.20;96.30;;;;;;5015319;28;20048;-90
2021/04/19 07:13:21;;;;;;;11.30;7.72;;;10.30;96.20;;;;;;5014196;28;20040;-90
2021/04/19 07:15:48;;;;;;;10.38;7.15;;;10.40;96.10;;;;;;5009069;28;20041;-90
2021/04/19 07:18:15;;;;;;;10.82;7.47;;;10.40;96.10;;;;;;5012279;28;20063;-89
2021/04/19 07:20:44;;;;;;;11.13;6.82;;;10.50;96.20;;;;;;5006159;28;20045;-91
2021/04/19 07:23:11;;;;;;;9.93;7.20;;;10.60;96.10;;;;;;5008550;28;20050;-90
2021/04/19 07:25:38;;;;;;;8.55;7.00;;;10.70;96.10;;;;;;5012516;28;20129;-90
2021/04/19 07:28:06;;;;;;;10.20;7.35;;;10.70;95.90;;;;;;5013215;28;20085;-90
2021/04/19 07:30:33;;;;;;;10.98;7.32;;;10.80;95.80;;;;;;5011862;28;20116;-89
2021/04/19 07:33:02;;;;;;;11.15;7.60;;;10.90;95.60;;;;;;5000131;28;20133;-90
2021/04/19 07:35:33;;;;;;;10.45;7.15;;;11.00;95.40;;;;;;5000097;28;20480;-90
2021/04/19 07:38:03;;;;;;;9.32;7.28;;;11.00;95.30;;;;;;5009135;28;20045;-91
2021/04/19 07:40:31;;;;;;;11.85;7.32;;;11.10;95.30;;;;;;5010064;28;20134;-90
2021/04/19 07:43:21;;;;;;;10.10;7.00;;;11.20;95.20;;;;;;5015731;28;20136;-90
2021/04/19 07:46:09;;;;;;;9.63;7.35;;;11.30;94.90;;;;;;5003761;28;20107;-90
2021/04/19 07:48:40;;;;;;;9.73;6.95;;;11.30;94.80;;;;;;5009524;28;20072;-89
2021/04/19 07:51:28;;;;;;;10.60;7.38;;;11.40;94.90;;;;;;5005708;28;20045;-90
2021/04/19 07:54:23;;;;;;;11.27;7.30;;;11.50;94.70;;;;;;5011311;28;20080;-91
2021/04/19 07:56:53;;;;;;;10.93;7.10;;;11.60;94.60;;;;;;5023072;28;20041;-93
2021/04/19 07:59:31;;;;;;;11.32;7.10;;;11.60;94.50;;;;;;5034069;28;20052;-90
2021/04/19 08:02:02;;;;;;;;;;;11.70;94.60;;;;;;5034517;28;20501;-90
2021/04/19 08:04:30;;;;;;;7.95;6.68;;;11.70;94.30;;;;;;5029565;28;20339;-91
2021/04/19 08:06:57;;;;;;;8.27;7.18;;;11.80;94.50;;;;;;5031929;28;20072;-91
2021/04/19 08:09:30;;;;;;;10.95;7.30;;;11.90;94.40;;;;;;5029254;28;20561;-91
2021/04/19 08:12:08;;;;;;;8.48;6.07;;;12.00;94.40;;;;;;5017694;28;20052;-90
2021/04/19 08:14:54;;;;;;;9.30;6.22;;;12.00;94.30;;;;;;5031030;28;20061;-91
2021/04/19 08:17:26;;;;;;;10.20;7.00;;;12.10;94.00;;;;;;5052940;28;20387;-91
2021/04/19 08:19:53;;;;;;;9.25;6.72;;;12.20;94.00;;;;;;5032408;28;20074;-90
2021/04/19 08:22:24;;;;;;;11.88;6.40;;;12.30;94.10;;;;;;5029827;28;20037;-90
2021/04/19 08:25:06;;;;;;;11.27;6.70;;;12.40;94.00;;;;;;5043861;28;20041;-90
2021/04/19 08:27:33;;;;;;;9.40;6.90;;;12.50;93.90;;;;;;5037467;28;20055;-91
2021/04/19 08:30:01;;;;;;;10.60;7.30;;;12.60;93.80;;;;;;5045654;28;20056;-90
2021/04/19 08:32:31;;;;;;;9.48;6.18;;;12.60;93.70;;;;;;5046005;28;20048;-90
2021/04/19 08:35:00;;;;;;;10.10;6.65;;;12.70;93.60;;;;;;5043594;28;20527;-90
2021/04/19 08:37:32;;;;;;;9.23;5.90;;;12.70;93.50;;;;;;5043463;28;20071;-90
2021/04/19 08:40:00;;;;;;;10.15;6.50;;;12.80;93.50;;;;;;5026756;28;20532;-90
2021/04/19 08:42:35;;;;;;;7.85;5.38;;;12.90;93.40;;;;;;5034639;28;20049;-89
2021/04/19 08:45:03;;;;;;;7.18;5.70;;;12.90;93.30;;;;;;5025865;28;20047;-90
2021/04/19 08:47:30;;;;;;;10.20;6.45;;;13.00;93.30;;;;;;5018694;28;20120;-90
2021/04/19 08:50:08;;;;;;;12.10;5.77;;;13.10;93.30;;;;;;5035221;28;20060;-89
2021/04/19 08:52:36;;;;;;;10.02;5.82;;;13.20;93.20;;;;;;5034589;28;20287;-90
2021/04/19 08:55:07;;;;;;;10.30;6.65;;;13.30;93.10;;;;;;5017752;28;20540;-89
2021/04/19 08:57:34;;;;;;;8.98;6.07;;;13.40;92.90;;;;;;5016803;28;20045;-89
2021/04/19 09:00:06;;;;;;;9.43;5.72;;;13.50;92.60;;;;;;5016949;28;20053;-90
2021/04/19 09:02:33;;;;;;;9.60;6.50;;;13.50;92.50;;;;;;5026477;28;20652;-89
2021/04/19 09:05:10;;;;;;;9.80;6.40;;;13.60;92.40;;;;;;5023630;28;20049;-89
2021/04/19 09:07:42;;;;;;;10.27;5.43;;;13.70;92.30;;;;;;5021177;28;20461;-90
2021/04/19 09:10:12;;;;;;;8.13;5.97;;;13.80;92.40;;;;;;5009486;28;20109;-89
2021/04/19 09:12:42;;;;;;;10.98;5.55;;;13.90;92.10;;;;;;5027807;28;20492;-89
2021/04/19 09:15:11;;;;;;;11.55;5.95;;;14.00;91.80;;;;;;5034987;28;20048;-89
2021/04/19 09:17:39;;;;;;;8.10;5.28;;;14.10;91.80;;;;;;5036931;28;20072;-90
2021/04/19 09:20:09;;;;;;;9.10;5.82;;;14.30;91.70;;;;;;5035487;28;20095;-89
2021/04/19 09:22:36;;;;;;;11.25;5.85;;;14.40;91.30;;;;;;5022702;28;20037;-89
2021/04/19 09:25:13;;;;;;;9.50;5.68;;;14.50;91.10;;;;;;5019329;28;20077;-90
2021/04/19 09:27:44;;;;;;;7.57;5.80;;;14.60;90.70;;;;;;5016644;28;20045;-89
2021/04/19 09:30:28;;;;;;;7.47;5.03;;;14.70;90.80;;;;;;5021963;28;20127;-89
2021/04/19 09:33:04;;;;;;;8.98;5.20;;;14.80;90.60;;;;;;5031039;28;20123;-89
2021/04/19 09:35:48;;;;;;;9.80;4.97;;;14.90;90.40;;;;;;5030978;28;20033;-89
2021/04/19 09:38:49;;;;;;;8.60;5.40;;;15.00;90.20;;;;;;5021110;28;20103;-89
2021/04/19 09:41:17;;;;;;;8.63;5.40;;;15.10;90.20;;;;;;5020779;28;20060;-90
2021/04/19 09:43:58;;;;;;;9.98;5.45;;;15.20;90.10;;;;;;5019840;28;20046;-91
2021/04/19 09:46:30;;;;;;;9.60;6.18;;;15.30;89.80;;;;;;5024715;28;20313;-89
2021/04/19 09:49:03;;;;;;;6.97;5.55;;;15.40;88.60;;;;;;5030418;28;20110;-89
2021/04/19 09:51:33;;;;;;;9.20;5.30;;;15.40;88.20;;;;;;5023173;28;20057;-89
2021/04/19 09:54:15;;;;;;;12.10;4.55;;;15.50;88.70;;;;;;5023024;28;26328;-89
2021/04/19 09:56:48;;;;;;;6.60;4.68;;;15.60;87.60;;;;;;5010901;28;20049;-87
2021/04/19 09:59:27;;;;;;;5.93;4.25;;;15.70;87.30;;;;;;5009723;28;20133;-89
2021/04/19 10:01:55;;;;;;;7.15;4.95;;;15.80;86.90;;;;;;5010131;28;20072;-89
2021/04/19 10:04:23;;;;;;;6.55;4.53;;;15.90;86.40;;;;;;5017320;28;20061;-90
2021/04/19 10:06:53;;;;;;;9.88;4.30;;;15.90;86.00;;;;;;4998099;28;20050;-89
2021/04/19 10:09:28;;;;;;;9.30;4.70;;;16.00;86.00;;;;;;5024553;28;20507;-90
2021/04/19 10:11:59;;;;;;;7.30;4.65;;;16.10;86.20;;;;;;5011581;28;20045;-89
2021/04/19 10:14:37;;;;;;;6.97;4.65;;;16.20;85.70;;;;;;5021457;28;20049;-89
2021/04/19 10:17:19;;;;;;;7.22;4.45;;;16.20;85.20;;;;;;4997857;28;20054;-90
2021/04/19 10:19:46;;;;;;;8.18;4.57;;;16.40;85.10;;;;;;5011701;28;20376;-90
2021/04/19 10:22:13;;;;;;;7.45;4.25;;;16.40;85.00;;;;;;5010314;28;20056;-90
2021/04/19 10:24:57;;;;;;;8.70;4.90;;;16.50;84.20;;;;;;5016367;28;20049;-90
2021/04/19 10:27:29;;;;;;;8.57;4.33;;;16.50;82.00;;;;;;5008192;28;20546;-90
2021/04/19 10:30:09;;;;;;;9.43;4.75;;;16.70;82.90;;;;;;5013845;28;20056;-90
2021/04/19 10:32:36;;;;;;;7.82;4.68;;;16.70;81.70;;;;;;5018743;28;20132;-90
2021/04/19 10:35:04;;;;;;;8.45;5.05;;;16.80;81.80;;;;;;5007812;28;20045;-90
2021/04/19 10:37:31;;;;;;;5.80;4.30;;;16.80;81.50;;;;;;5005715;28;20038;-90
2021/04/19 10:39:59;;;;;;;7.13;4.30;;;16.80;81.50;;;;;;5025830;28;20068;-90
2021/04/19 10:42:28;;;;;;;7.97;4.33;;;16.90;81.00;;;;;;5009782;28;20217;-90
2021/04/19 10:44:57;;;;;;;8.75;4.25;;;16.90;80.60;;;;;;5017066;28;20054;-91
2021/04/19 10:47:28;;;;;;;6.68;3.90;;;17.00;79.80;;;;;;5009208;28;20060;-90
2021/04/19 10:49:58;;;;;;;8.93;4.07;;;17.00;78.90;;;;;;5014796;28;20501;-91
2021/04/19 10:52:36;;;;;;;7.65;4.53;;;17.00;78.60;;;;;;4997871;28;20060;-91
2021/04/19 10:55:20;;;;;;;8.20;4.30;;;17.10;78.60;;;;;;4989685;28;20224;-90
2021/04/19 10:57:58;;;;;;;9.02;3.97;;;17.10;78.70;;;;;;4996377;28;20555;-92
2021/04/19 11:00:36;;;;;;;8.82;4.13;;;17.10;78.50;;;;;;5010507;28;20465;-91
2021/04/19 11:03:13;;;;;;;7.28;3.58;;;17.20;77.80;;;;;;5011326;28;20083;-91
2021/04/19 11:05:42;;;;;;;7.25;4.20;;;17.20;78.10;;;;;;5012546;28;20042;-91
2021/04/19 11:08:08;;;;;;;7.75;3.90;;;17.30;77.70;;;;;;4998400;28;20045;-92
2021/04/19 11:10:35;;;;;;;6.22;4.13;;;17.40;77.60;;;;;;5006429;28;20457;-91
2021/04/19 11:13:06;;;;;;;5.85;3.78;;;17.40;77.20;;;;;;5009016;28;20079;-92
2021/04/19 11:15:46;;;;;;;7.03;3.53;;;17.50;76.90;;;;;;5001412;28;20546;-91
2021/04/19 11:18:23;;;;;;;9.00;3.60;;;17.50;76.20;;;;;;5006933;28;20159;-91
2021/04/19 11:20:51;;;;;;;9.82;4.05;;;17.60;76.00;;;;;;5014663;28;20048;-91
2021/04/19 11:23:27;;;;;;;6.90;3.95;;;17.50;75.30;;;;;;5018446;28;20054;-88
2021/04/19 11:25:59;;;;;;;7.60;3.35;;;17.60;74.90;;;;;;5014796;28;20060;-89
2021/04/19 11:28:33;;;;;;;13.40;4.95;;;17.70;74.90;;;;;;5012240;28;20525;-89
2021/04/19 11:31:15;;;;;;;11.00;4.45;;;17.80;75.20;;;;;;5014342;28;20485;-89
2021/04/19 11:33:43;;;;;;;5.68;3.90;;;17.90;75.50;;;;;;5014949;28;20038;-89
2021/04/19 11:36:40;;;;;;;6.70;4.00;;;18.00;75.50;;;;;;5030936;28;20047;-89
2021/04/19 11:39:12;;;;;;;8.30;3.45;;;18.10;74.70;;;;;;5032068;28;20046;-90
2021/04/19 11:41:39;;;;;;;6.75;4.35;;;18.20;75.30;;;;;;5015272;28;20050;-90
2021/04/19 11:44:06;;;;;;;7.95;3.83;;;18.30;74.90;;;;;;5020532;28;20123;-89
2021/04/19 11:46:40;;;;;;;6.43;2.97;;;18.40;74.80;;;;;;5023715;28;20049;-90
2021/04/19 11:49:09;;;;;;;7.13;3.15;;;18.50;73.40;;;;;;5009413;28;20045;-90
2021/04/19 11:51:36;;;;;;;6.13;3.00;;;18.50;73.00;;;;;;5025199;28;20041;-90
2021/04/19 11:54:03;;;;;;;6.82;3.70;;;18.60;72.70;;;;;;5005348;28;20168;-90
2021/04/19 11:56:29;;;;;;;5.40;2.90;;;18.50;72.40;;;;;;5016969;28;20565;-90
2021/04/19 11:59:07;;;;;;;4.68;2.80;;;18.60;72.20;;;;;;5012448;28;20041;-89
2021/04/19 12:01:35;;;;;;;7.35;3.78;;;18.50;71.10;;;;;;5011168;28;20041;-89
2021/04/19 12:04:05;;;;;;;8.38;3.75;;;18.60;71.70;;;;;;5013244;28;20052;-90
2021/04/19 12:06:34;;;;;;;8.65;3.35;;;18.60;70.50;;;;;;5022950;28;20049;-90
2021/04/19 12:09:02;;;;;;;12.05;3.65;;;18.50;70.80;;;;;;5022173;28;21147;-90
2021/04/19 12:11:28;;;;;;;6.80;3.78;;;18.60;71.40;;;;;;5023643;28;20041;-90
2021/04/19 12:13:59;;;;;;;6.43;3.30;;;18.60;71.10;;;;;;5024592;28;20075;-89
2021/04/19 12:16:27;;;;;;;6.85;3.40;;;18.70;71.40;;;;;;5015087;28;20132;-91
2021/04/19 12:18:55;;;;;;;6.68;2.53;;;18.70;71.20;;;;;;5023757;28;20124;-93
2021/04/19 12:21:24;;;;;;;5.95;3.00;;;18.70;70.80;;;;;;5024164;28;20048;-90
2021/04/19 12:23:50;;;;;;;6.28;3.00;;;18.80;70.70;;;;;;5021947;28;20524;-90
2021/04/19 12:26:17;;;;;;;7.30;2.92;;;18.90;70.10;;;;;;5023269;28;20045;-90
2021/04/19 12:29:05;;;;;;;6.43;2.95;;;18.90;69.60;;;;;;5027045;28;20045;-90
2021/04/19 12:31:31;;;;;;;6.57;2.80;;;19.00;69.10;;;;;;5021876;28;20059;-90
2021/04/19 12:33:58;;;;;;;6.50;2.70;;;19.10;69.40;;;;;;5022853;28;20400;-90
2021/04/19 12:36:24;;;;;;;6.80;3.15;;;19.10;68.90;;;;;;5022050;28;20049;-90
2021/04/19 12:38:52;;;;;;;15.88;3.47;;;19.20;68.50;;;;;;5010415;28;20051;-91
2021/04/19 12:41:19;;;;;;;11.45;3.33;;;19.20;68.20;;;;;;5020015;28;20068;-92
2021/04/19 12:43:47;;;;;;;8.80;2.90;;;19.20;68.50;;;;;;5002212;28;20045;-92
2021/04/19 12:46:18;;;;;;;14.27;4.03;;;19.20;68.90;;;;;;5008432;28;20104;-91
2021/04/19 12:48:45;;;;;;;5.20;3.13;;;19.10;69.00;;;;;;5007330;28;20049;-92
2021/04/19 12:51:13;;;;;;;5.80;2.63;;;19.10;69.60;;;;;;5008638;28;20061;-92
2021/04/19 12:53:44;;;;;;;7.57;3.30;;;19.10;69.70;;;;;;4996089;28;20497;-92
2021/04/19 12:56:31;;;;;;;6.40;3.25;;;19.10;69.30;;;;;;4972300;28;20050;-92
2021/04/19 12:59:04;;;;;;;4.47;2.78;;;19.10;69.30;;;;;;4960150;28;20146;-92
2021/04/19 13:01:33;;;;;;;5.22;3.00;;;19.10;69.20;;;;;;4979570;28;20064;-93
2021/04/19 13:04:16;;;;;;;6.85;3.40;;;19.10;69.20;;;;;;4971914;28;20066;-93
2021/04/19 13:07:12;;;;;;;6.22;3.50;;;19.10;68.70;;;;;;4893571;29;20059;-93
2021/04/19 13:09:48;;;;;;;6.82;3.88;;;19.00;69.50;;;;;;4835535;29;20081;-93
2021/04/19 13:12:28;;;;;;;7.38;3.47;;;18.90;69.30;;;;;;4862919;29;20495;-93
2021/04/19 13:14:57;;;;;;;6.93;3.83;;;18.90;69.40;;;;;;4896951;29;20143;-93